Time;durP1;ratioP1;P1;durP2;ratioP2;P2;SDS_P1;SDS_P2;PMS_P1;PMS_P2;Temp;Humidity;BMP_temperature;BMP_pressure;BME280_temperature;BME280_humidity;BME280_pressure;Samples;Min_cycle;Max_cycle;Signal;HPM_P1;HPM_P2
2021/03/29 00:00:28;;;;;;;2.03;1.13;;;8.90;66.40;;;;;;5046735;28;20624;-74
2021/03/29 00:02:54;;;;;;;1.97;1.43;;;8.90;66.30;;;;;;5046262;28;20670;-74
2021/03/29 00:05:22;;;;;;;1.67;1.37;;;8.90;66.50;;;;;;5043542;28;20191;-74
2021/03/29 00:07:52;;;;;;;1.40;1.30;;;8.80;66.50;;;;;;5061708;28;20599;-74
2021/03/29 00:10:18;;;;;;;1.33;1.30;;;8.80;66.50;;;;;;5043040;28;20979;-74
2021/03/29 00:12:47;;;;;;;1.03;1.03;;;8.70;66.80;;;;;;5046281;28;20180;-74
2021/03/29 00:15:19;;;;;;;1.27;1.10;;;8.70;66.80;;;;;;5046841;28;20183;-74
2021/03/29 00:17:46;;;;;;;2.50;1.50;;;8.70;66.80;;;;;;5054609;28;20206;-74
2021/03/29 00:20:14;;;;;;;1.97;1.87;;;8.70;67.00;;;;;;5047799;28;20248;-74
2021/03/29 00:22:40;;;;;;;1.30;1.30;;;8.70;67.00;;;;;;5048360;28;20187;-74
2021/03/29 00:25:10;;;;;;;1.03;1.03;;;8.70;67.00;;;;;;5047137;28;20183;-74
2021/03/29 00:27:35;;;;;;;1.20;1.17;;;8.60;67.20;;;;;;5046331;28;20183;-74
2021/03/29 00:30:05;;;;;;;1.80;1.27;;;8.60;67.10;;;;;;5044633;28;20200;-74
2021/03/29 00:32:31;;;;;;;1.30;1.20;;;8.60;67.00;;;;;;5047075;28;20546;-74
2021/03/29 00:34:57;;;;;;;1.40;1.30;;;8.50;67.10;;;;;;5044243;28;20257;-74
2021/03/29 00:37:24;;;;;;;1.87;1.07;;;8.50;67.00;;;;;;5048627;28;20179;-75
2021/03/29 00:39:50;;;;;;;1.70;1.20;;;8.40;66.90;;;;;;5045205;28;20190;-74
2021/03/29 00:42:17;;;;;;;1.10;0.93;;;8.50;67.10;;;;;;5045959;28;20210;-74
2021/03/29 00:44:44;;;;;;;2.37;1.03;;;8.40;67.00;;;;;;5047343;28;20218;-74
2021/03/29 00:47:10;;;;;;;1.00;1.00;;;8.40;67.00;;;;;;5045738;28;20599;-74
2021/03/29 00:49:36;;;;;;;1.37;1.27;;;8.40;67.10;;;;;;5047320;28;20195;-74
2021/03/29 00:52:02;;;;;;;2.30;1.80;;;8.40;67.20;;;;;;5050003;28;20290;-74
2021/03/29 00:54:29;;;;;;;2.03;1.80;;;8.30;67.50;;;;;;5049045;28;20512;-74
2021/03/29 00:56:56;;;;;;;5.13;1.50;;;8.30;67.50;;;;;;5048667;28;20766;-74
2021/03/29 00:59:22;;;;;;;2.77;1.50;;;8.30;67.50;;;;;;5049981;28;20211;-74
2021/03/29 01:01:51;;;;;;;1.50;1.30;;;8.20;67.70;;;;;;5048295;28;20640;-74
2021/03/29 01:04:18;;;;;;;1.03;1.03;;;8.10;67.80;;;;;;5050866;28;20281;-74
2021/03/29 01:06:46;;;;;;;1.33;1.03;;;8.10;67.90;;;;;;5050666;28;20215;-74
2021/03/29 01:09:24;;;;;;;2.10;1.30;;;8.00;68.00;;;;;;5049029;28;20191;-74
2021/03/29 01:11:58;;;;;;;0.97;0.90;;;8.00;67.90;;;;;;5049774;28;20658;-74
2021/03/29 01:14:28;;;;;;;1.00;1.00;;;8.00;67.80;;;;;;5047866;28;20199;-74
2021/03/29 01:17:06;;;;;;;5.67;0.90;;;8.00;67.80;;;;;;5050866;28;20188;-74
2021/03/29 01:19:50;;;;;;;3.80;1.30;;;8.00;67.80;;;;;;5049896;28;20176;-74
2021/03/29 01:22:20;;;;;;;0.87;0.87;;;8.00;67.80;;;;;;5046426;28;20183;-74
2021/03/29 01:24:58;;;;;;;1.10;1.10;;;8.10;67.70;;;;;;5047935;28;20203;-74
2021/03/29 01:27:32;;;;;;;0.87;0.83;;;8.10;67.40;;;;;;5051028;28;20215;-74
2021/03/29 01:29:59;;;;;;;1.10;1.10;;;8.10;67.40;;;;;;5051307;28;20938;-74
2021/03/29 01:32:26;;;;;;;1.20;1.20;;;8.20;67.20;;;;;;5048988;28;20203;-74
2021/03/29 01:34:53;;;;;;;1.13;1.03;;;8.20;67.30;;;;;;5051048;28;20248;-74
2021/03/29 01:37:20;;;;;;;1.50;0.93;;;8.20;67.20;;;;;;5042768;28;20195;-74
2021/03/29 01:39:49;;;;;;;1.53;0.80;;;8.30;67.20;;;;;;5048151;28;20188;-74
2021/03/29 01:42:15;;;;;;;2.50;1.07;;;;;;;;;;5048403;28;20202;-74
2021/03/29 01:44:42;;;;;;;1.13;1.00;;;8.30;66.90;;;;;;5050117;28;20195;-74
2021/03/29 01:47:09;;;;;;;1.20;1.20;;;8.30;67.00;;;;;;5047850;28;20187;-74
2021/03/29 01:49:36;;;;;;;1.37;1.27;;;8.20;66.90;;;;;;5050356;28;20195;-73
2021/03/29 01:52:03;;;;;;;1.87;1.70;;;8.30;66.90;;;;;;5047904;28;20207;-74
2021/03/29 01:54:30;;;;;;;1.17;1.00;;;8.20;67.00;;;;;;5048684;28;20286;-74
2021/03/29 01:56:56;;;;;;;1.53;0.77;;;8.20;67.00;;;;;;5047704;28;20179;-74
2021/03/29 01:59:22;;;;;;;1.23;1.13;;;8.20;67.00;;;;;;5048535;28;20176;-74
2021/03/29 02:01:48;;;;;;;0.87;0.87;;;8.20;67.10;;;;;;5044443;28;20192;-74
2021/03/29 02:04:14;;;;;;;0.80;0.80;;;8.30;67.20;;;;;;5043120;28;20192;-74
2021/03/29 02:06:40;;;;;;;3.20;1.30;;;8.20;66.90;;;;;;5044186;28;20184;-74
2021/03/29 02:09:08;;;;;;;1.13;1.13;;;8.20;67.00;;;;;;5044865;28;20290;-73
2021/03/29 02:11:35;;;;;;;1.17;1.00;;;8.20;66.80;;;;;;5044005;28;20215;-73
2021/03/29 02:14:02;;;;;;;2.00;1.03;;;8.20;66.70;;;;;;5043959;28;20249;-74
2021/03/29 02:16:30;;;;;;;1.33;1.33;;;8.30;66.70;;;;;;5043102;28;20218;-73
2021/03/29 02:19:01;;;;;;;2.40;1.50;;;8.30;66.70;;;;;;5042045;28;20215;-73
2021/03/29 02:21:30;;;;;;;3.50;1.47;;;8.30;66.60;;;;;;5043651;28;20191;-73
2021/03/29 02:23:57;;;;;;;1.03;0.87;;;8.40;66.80;;;;;;5043436;28;20187;-73
2021/03/29 02:26:28;;;;;;;1.87;1.33;;;8.40;66.80;;;;;;5043450;28;20713;-74
2021/03/29 02:28:56;;;;;;;1.17;0.97;;;8.40;66.70;;;;;;5044289;28;20199;-74
2021/03/29 02:31:24;;;;;;;1.80;1.00;;;8.40;66.60;;;;;;5044037;28;20245;-74
2021/03/29 02:33:51;;;;;;;1.77;1.10;;;8.40;66.80;;;;;;5044316;28;20730;-72
2021/03/29 02:36:20;;;;;;;1.13;1.13;;;8.50;66.70;;;;;;5043308;28;20872;-72
2021/03/29 02:38:45;;;;;;;0.90;0.90;;;8.40;66.90;;;;;;5043881;28;20667;-72
2021/03/29 02:41:11;;;;;;;1.00;1.00;;;8.40;66.80;;;;;;5076066;28;20206;-72
2021/03/29 02:43:38;;;;;;;1.23;1.13;;;8.50;66.70;;;;;;5044237;28;20207;-72
2021/03/29 02:46:06;;;;;;;1.30;1.20;;;8.40;66.90;;;;;;5042557;28;20273;-73
2021/03/29 02:48:40;;;;;;;1.43;1.33;;;8.40;66.80;;;;;;5043374;28;20215;-73
2021/03/29 02:51:13;;;;;;;1.80;0.90;;;8.40;67.00;;;;;;5042670;28;20297;-72
2021/03/29 02:53:44;;;;;;;3.00;1.27;;;8.40;67.20;;;;;;5074528;28;20682;-72
2021/03/29 02:56:15;;;;;;;1.10;1.10;;;8.40;67.40;;;;;;5043994;28;20560;-72
2021/03/29 02:58:44;;;;;;;1.50;1.40;;;8.30;68.00;;;;;;5041473;28;20203;-72
2021/03/29 03:01:12;;;;;;;2.80;2.30;;;8.30;68.10;;;;;;5042871;28;20188;-72
2021/03/29 03:03:41;;;;;;;2.13;1.90;;;8.30;68.90;;;;;;5042951;28;20192;-72
2021/03/29 03:06:07;;;;;;;2.17;1.97;;;8.20;70.20;;;;;;5042656;28;20593;-72
2021/03/29 03:08:37;;;;;;;1.77;1.67;;;8.20;70.20;;;;;;5044182;28;20188;-73
2021/03/29 03:11:08;;;;;;;2.67;2.00;;;8.20;70.60;;;;;;5043839;28;20265;-72
2021/03/29 03:13:34;;;;;;;2.83;2.27;;;8.20;70.60;;;;;;5042518;28;20179;-73
2021/03/29 03:16:00;;;;;;;2.30;2.10;;;8.00;70.50;;;;;;5042140;28;20239;-72
2021/03/29 03:18:26;;;;;;;4.43;2.43;;;8.00;70.50;;;;;;5042037;28;20188;-71
2021/03/29 03:20:52;;;;;;;1.37;1.37;;;7.90;70.50;;;;;;5043396;28;20191;-73
2021/03/29 03:23:18;;;;;;;1.57;1.40;;;7.90;70.40;;;;;;5041631;28;20211;-73
2021/03/29 03:25:47;;;;;;;4.13;2.07;;;7.90;70.20;;;;;;5057702;28;20638;-73
2021/03/29 03:28:16;;;;;;;2.20;1.27;;;7.90;70.00;;;;;;5057052;28;20194;-73
2021/03/29 03:30:50;;;;;;;1.97;1.70;;;7.90;69.90;;;;;;5042400;28;20203;-73
2021/03/29 03:33:19;;;;;;;2.00;1.90;;;7.90;69.70;;;;;;5042279;28;20194;-73
2021/03/29 03:35:46;;;;;;;3.57;1.70;;;8.00;69.90;;;;;;5043497;28;20179;-73
2021/03/29 03:38:25;;;;;;;1.50;1.40;;;8.00;69.80;;;;;;5045814;28;20615;-73
2021/03/29 03:40:57;;;;;;;1.50;1.40;;;8.00;69.60;;;;;;5036086;28;20171;-72
2021/03/29 03:43:25;;;;;;;1.30;1.20;;;8.00;69.40;;;;;;5042193;28;20191;-73
2021/03/29 03:46:06;;;;;;;3.47;1.33;;;8.00;69.20;;;;;;5056039;28;20570;-73
2021/03/29 03:48:33;;;;;;;1.10;1.10;;;8.00;69.30;;;;;;5075974;28;20740;-72
2021/03/29 03:50:59;;;;;;;3.80;1.47;;;8.00;69.40;;;;;;5046745;28;20276;-73
2021/03/29 03:53:27;;;;;;;1.77;1.67;;;8.00;69.60;;;;;;5046532;28;20183;-73
2021/03/29 03:55:57;;;;;;;1.97;1.60;;;8.00;69.70;;;;;;5047410;28;20581;-73
2021/03/29 03:58:24;;;;;;;1.43;1.37;;;8.00;69.60;;;;;;5046826;28;20180;-73
2021/03/29 04:00:50;;;;;;;4.33;1.43;;;8.10;69.60;;;;;;5045351;28;20236;-72
2021/03/29 04:03:16;;;;;;;1.67;1.57;;;8.10;69.60;;;;;;5077623;28;20341;-73
2021/03/29 04:05:42;;;;;;;2.90;1.83;;;8.10;69.50;;;;;;5045773;28;20269;-73
2021/03/29 04:08:10;;;;;;;2.07;1.90;;;8.10;69.50;;;;;;5046136;28;20183;-73
2021/03/29 04:10:56;;;;;;;2.10;1.80;;;8.10;69.20;;;;;;5047626;28;21016;-74
2021/03/29 04:15:50;;;;;;;2.37;2.00;;;8.10;69.50;;;;;;5041961;28;20176;-73
2021/03/29 04:18:16;;;;;;;2.20;1.57;;;8.10;69.60;;;;;;5038758;28;20558;-73
2021/03/29 04:20:42;;;;;;;2.60;1.80;;;8.10;69.40;;;;;;5045215;28;20188;-73
2021/03/29 04:23:08;;;;;;;3.13;1.47;;;8.10;69.40;;;;;;5044941;28;20168;-73
2021/03/29 04:25:34;;;;;;;1.63;1.53;;;8.00;69.20;;;;;;5047327;28;20694;-73
2021/03/29 04:28:00;;;;;;;1.67;1.60;;;8.00;69.10;;;;;;5045953;28;20651;-74
2021/03/29 04:30:26;;;;;;;2.07;1.87;;;7.90;68.80;;;;;;5044083;28;20190;-73
2021/03/29 04:32:53;;;;;;;3.40;1.63;;;7.90;68.50;;;;;;5045027;28;20187;-73
2021/03/29 04:35:21;;;;;;;1.07;1.07;;;7.90;68.10;;;;;;5045057;28;20191;-73
2021/03/29 04:37:48;;;;;;;3.77;1.40;;;7.80;69.00;;;;;;5044795;28;20706;-73
2021/03/29 04:40:15;;;;;;;2.80;1.60;;;7.80;69.40;;;;;;5045707;28;20188;-73
2021/03/29 04:42:41;;;;;;;1.60;1.23;;;7.80;69.80;;;;;;5048973;28;20191;-73
2021/03/29 04:45:07;;;;;;;3.80;1.53;;;7.70;70.00;;;;;;5051811;28;20191;-73
2021/03/29 04:47:33;;;;;;;1.77;1.67;;;7.60;70.00;;;;;;5063128;28;20382;-73
2021/03/29 04:49:59;;;;;;;1.93;1.60;;;7.50;70.10;;;;;;5062951;28;20187;-73
2021/03/29 04:52:25;;;;;;;3.27;1.57;;;7.50;70.30;;;;;;5049991;28;21096;-72
2021/03/29 04:54:51;;;;;;;1.57;1.47;;;7.50;70.30;;;;;;5047804;28;20641;-74
2021/03/29 04:57:17;;;;;;;1.70;1.60;;;7.50;70.70;;;;;;5047170;28;20187;-72
2021/03/29 04:59:42;;;;;;;1.90;1.77;;;7.60;70.80;;;;;;5065179;28;20192;-74
2021/03/29 05:02:09;;;;;;;5.13;1.97;;;7.60;70.70;;;;;;5048885;28;20195;-73
2021/03/29 05:04:37;;;;;;;2.23;2.13;;;7.70;70.80;;;;;;5047209;28;20187;-73
2021/03/29 05:07:12;;;;;;;2.97;1.90;;;7.70;71.10;;;;;;5046127;28;20192;-73
2021/03/29 05:09:39;;;;;;;2.40;2.20;;;7.80;71.30;;;;;;5045204;28;20187;-73
2021/03/29 05:12:12;;;;;;;2.13;2.03;;;7.80;71.30;;;;;;5050827;28;20754;-73
2021/03/29 05:14:39;;;;;;;3.10;2.70;;;7.90;71.20;;;;;;5045511;28;20201;-73
2021/03/29 05:17:07;;;;;;;2.60;2.23;;;8.00;71.10;;;;;;5050954;28;20179;-72
2021/03/29 05:19:33;;;;;;;2.43;2.33;;;8.00;70.90;;;;;;5046326;28;20187;-73
2021/03/29 05:21:59;;;;;;;6.23;2.87;;;8.00;70.60;;;;;;5047240;28;20209;-73
2021/03/29 05:24:26;;;;;;;2.97;2.77;;;8.10;70.20;;;;;;5045338;28;20188;-71
2021/03/29 05:29:43;;;;;;;3.13;2.83;;;8.20;70.00;;;;;;5042949;28;20584;-75
2021/03/29 05:32:18;;;;;;;4.47;3.23;;;8.20;69.80;;;;;;5046739;28;20223;-71
2021/03/29 05:34:46;;;;;;;4.13;2.10;;;8.20;69.60;;;;;;5046660;28;20270;-74
2021/03/29 05:37:17;;;;;;;2.80;2.70;;;8.20;69.20;;;;;;5045773;28;20183;-76
2021/03/29 05:39:45;;;;;;;4.67;2.87;;;8.30;69.20;;;;;;5045065;28;20717;-77
2021/03/29 05:42:11;;;;;;;3.23;2.10;;;8.40;69.20;;;;;;5046602;28;20241;-76
2021/03/29 05:44:37;;;;;;;2.43;2.23;;;8.40;69.10;;;;;;5045974;28;20191;-73
2021/03/29 05:47:03;;;;;;;2.43;2.23;;;8.40;69.10;;;;;;5043193;28;20597;-72
2021/03/29 05:49:31;;;;;;;2.13;1.93;;;8.50;69.30;;;;;;5046752;28;20199;-76
2021/03/29 05:51:57;;;;;;;2.50;2.00;;;8.60;68.70;;;;;;5046293;28;20260;-72
2021/03/29 05:54:23;;;;;;;7.50;3.37;;;8.70;68.80;;;;;;5049531;28;20225;-72
2021/03/29 05:56:50;;;;;;;1.73;1.63;;;8.80;68.50;;;;;;5046680;28;20238;-72
2021/03/29 06:01:53;;;;;;;1.63;1.40;;;8.90;66.80;;;;;;5050370;28;21068;-72
2021/03/29 06:04:47;;;;;;;3.03;1.60;;;9.00;66.70;;;;;;5045466;28;20210;-70
2021/03/29 06:07:14;;;;;;;1.67;1.57;;;9.10;67.10;;;;;;5041224;28;20211;-71
2021/03/29 06:09:40;;;;;;;2.50;2.00;;;9.20;67.20;;;;;;5041650;28;20194;-71
2021/03/29 06:12:08;;;;;;;12.83;2.80;;;9.20;66.80;;;;;;5050430;28;20918;-70
2021/03/29 06:14:34;;;;;;;4.47;3.10;;;9.20;67.10;;;;;;5047161;28;20641;-70
2021/03/29 06:17:21;;;;;;;4.00;3.60;;;9.20;67.20;;;;;;5046237;28;20665;-70
2021/03/29 06:19:52;;;;;;;3.57;3.20;;;9.10;67.20;;;;;;5046348;28;20202;-70
2021/03/29 06:22:35;;;;;;;5.07;2.37;;;9.20;67.30;;;;;;5050317;28;20175;-70
2021/03/29 06:25:06;;;;;;;2.97;2.00;;;9.20;66.90;;;;;;5051996;28;20390;-70
2021/03/29 06:27:33;;;;;;;3.20;2.27;;;9.20;66.40;;;;;;5049555;28;20215;-70
2021/03/29 06:30:17;;;;;;;4.73;2.40;;;9.10;66.20;;;;;;5058393;28;20217;-70
2021/03/29 06:33:17;;;;;;;2.20;2.00;;;9.00;66.70;;;;;;5061325;28;20636;-70
2021/03/29 06:35:55;;;;;;;2.23;2.13;;;9.00;67.00;;;;;;5034547;28;20203;-70
2021/03/29 06:38:21;;;;;;;1.80;1.70;;;;;;;;;;5047679;28;20211;-70
2021/03/29 06:40:51;;;;;;;1.23;1.03;;;9.00;66.40;;;;;;5047133;28;20214;-70
2021/03/29 06:43:27;;;;;;;1.47;1.40;;;9.00;66.20;;;;;;5047958;28;20183;-70
2021/03/29 06:46:08;;;;;;;1.70;1.43;;;9.00;66.50;;;;;;5047110;28;20203;-69
2021/03/29 06:48:38;;;;;;;1.57;1.47;;;9.00;66.60;;;;;;5046631;28;20312;-70
2021/03/29 06:51:04;;;;;;;5.73;1.87;;;;;;;;;;5047296;28;20854;-70
2021/03/29 06:53:30;;;;;;;1.60;1.50;;;8.90;66.60;;;;;;5046754;28;20191;-69
2021/03/29 06:55:58;;;;;;;2.60;1.93;;;9.00;66.80;;;;;;5047307;28;20207;-70
2021/03/29 06:58:25;;;;;;;2.50;1.33;;;9.10;66.90;;;;;;5046251;28;20184;-70
2021/03/29 07:00:55;;;;;;;3.37;1.77;;;9.10;67.00;;;;;;5045693;28;20638;-70
2021/03/29 07:03:21;;;;;;;7.40;1.10;;;9.20;67.00;;;;;;5045798;28;20187;-71
2021/03/29 07:05:48;;;;;;;2.40;1.67;;;9.30;66.90;;;;;;5046440;28;20188;-70
2021/03/29 07:08:15;;;;;;;1.40;1.30;;;;;;;;;;5046397;28;20219;-70
2021/03/29 07:10:41;;;;;;;1.03;0.83;;;;;;;;;;5047520;28;20195;-70
2021/03/29 07:13:09;;;;;;;1.50;1.40;;;9.40;65.50;;;;;;5046784;28;20194;-70
2021/03/29 07:15:36;;;;;;;2.40;0.80;;;9.50;64.70;;;;;;5047097;28;20244;-71
2021/03/29 07:18:02;;;;;;;1.37;1.03;;;9.50;65.00;;;;;;5046220;28;20626;-70
2021/03/29 07:20:31;;;;;;;1.37;1.27;;;9.50;65.30;;;;;;5047181;28;20192;-70
2021/03/29 07:22:57;;;;;;;1.27;1.17;;;9.60;65.10;;;;;;5046258;28;20241;-70
2021/03/29 07:25:30;;;;;;;1.33;1.33;;;9.60;64.80;;;;;;5046474;28;21078;-70
2021/03/29 07:27:58;;;;;;;1.50;1.03;;;9.70;63.60;;;;;;5045679;28;20596;-70
2021/03/29 07:30:47;;;;;;;1.53;1.43;;;9.60;63.20;;;;;;5058381;28;20187;-71
2021/03/29 07:33:18;;;;;;;0.80;0.80;;;9.70;63.70;;;;;;5057533;28;20257;-70
2021/03/29 07:35:51;;;;;;;1.00;0.97;;;9.80;63.70;;;;;;5055442;28;20176;-70
2021/03/29 07:38:46;;;;;;;1.00;1.00;;;9.90;62.70;;;;;;5044954;28;20270;-70
2021/03/29 07:41:13;;;;;;;1.00;1.00;;;9.90;62.50;;;;;;5045738;28;20194;-70
2021/03/29 07:44:19;;;;;;;3.03;1.00;;;9.90;61.90;;;;;;5046571;28;20184;-70
2021/03/29 07:46:48;;;;;;;1.27;1.10;;;9.90;61.80;;;;;;5048605;28;20229;-70
2021/03/29 07:49:46;;;;;;;1.30;1.30;;;10.00;61.80;;;;;;5044586;28;20548;-70
2021/03/29 07:52:34;;;;;;;5.27;1.47;;;10.00;61.80;;;;;;5052820;28;20222;-71
2021/03/29 07:55:04;;;;;;;0.93;0.93;;;10.00;60.50;;;;;;5052013;28;20833;-70
2021/03/29 07:57:50;;;;;;;1.53;1.43;;;10.10;60.90;;;;;;5054882;28;20230;-71
2021/03/29 08:00:22;;;;;;;2.03;1.23;;;10.20;60.60;;;;;;5039197;28;20183;-70
2021/03/29 08:02:48;;;;;;;1.50;1.40;;;10.20;61.30;;;;;;5044685;28;20696;-70
2021/03/29 08:05:17;;;;;;;1.77;1.27;;;10.20;61.20;;;;;;5053455;28;20192;-71
2021/03/29 08:07:47;;;;;;;0.80;0.80;;;10.30;61.00;;;;;;5056574;28;20244;-70
2021/03/29 08:10:16;;;;;;;1.53;0.97;;;10.40;61.20;;;;;;5054369;28;20183;-70
2021/03/29 08:13:01;;;;;;;1.23;1.07;;;10.60;61.50;;;;;;5048273;28;20268;-70
2021/03/29 08:15:58;;;;;;;1.77;0.83;;;10.80;61.20;;;;;;5045741;28;20179;-70
2021/03/29 08:18:24;;;;;;;1.00;1.00;;;11.00;60.80;;;;;;5044199;28;20215;-69
2021/03/29 08:20:54;;;;;;;1.33;1.33;;;11.30;59.60;;;;;;5055253;28;20217;-69
2021/03/29 08:23:37;;;;;;;1.20;1.00;;;11.50;59.90;;;;;;5054065;28;20646;-71
2021/03/29 08:26:13;;;;;;;2.35;1.13;;;11.80;59.60;;;;;;5049426;28;20183;-69
2021/03/29 08:29:07;;;;;;;0.73;0.73;;;12.10;58.60;;;;;;5035651;28;20661;-70
2021/03/29 08:32:09;;;;;;;0.70;0.70;;;12.50;56.90;;;;;;5057370;28;20305;-70
2021/03/29 08:34:35;;;;;;;1.50;0.90;;;12.80;55.70;;;;;;5044327;28;20267;-69
2021/03/29 08:37:03;;;;;;;0.77;0.77;;;13.20;55.70;;;;;;5047040;28;20214;-69
2021/03/29 08:39:34;;;;;;;0.88;0.88;;;13.70;54.90;;;;;;5047096;28;20278;-69
2021/03/29 08:42:00;;;;;;;0.60;0.60;;;14.10;54.20;;;;;;5047715;28;20179;-69
2021/03/29 08:44:29;;;;;;;1.27;0.93;;;14.40;53.00;;;;;;5046668;28;20184;-70
2021/03/29 08:46:56;;;;;;;2.10;1.00;;;15.00;53.10;;;;;;5045618;28;20183;-69
2021/03/29 08:49:23;;;;;;;1.50;1.02;;;15.70;53.10;;;;;;5046886;28;20629;-70
2021/03/29 08:51:53;;;;;;;0.90;0.90;;;16.70;51.40;;;;;;5055997;28;20279;-70
2021/03/29 08:54:19;;;;;;;3.78;0.68;;;17.10;49.90;;;;;;5054948;28;20176;-70
2021/03/29 08:56:54;;;;;;;1.95;0.90;;;17.40;49.50;;;;;;5052875;28;20187;-70
2021/03/29 08:59:28;;;;;;;0.80;0.80;;;18.00;49.10;;;;;;5050956;28;20179;-69
2021/03/29 09:01:54;;;;;;;0.60;0.57;;;18.60;47.40;;;;;;5037101;28;20322;-70
2021/03/29 09:04:19;;;;;;;0.70;0.70;;;18.80;47.10;;;;;;5045857;28;20308;-69
2021/03/29 09:06:45;;;;;;;2.20;0.93;;;19.40;47.20;;;;;;5045180;28;20207;-70
2021/03/29 09:09:16;;;;;;;1.33;1.10;;;19.10;46.70;;;;;;5040769;28;20183;-70
2021/03/29 09:11:44;;;;;;;1.15;1.15;;;19.00;47.70;;;;;;5044154;28;20207;-70
2021/03/29 09:14:10;;;;;;;1.00;0.88;;;19.20;46.80;;;;;;5045005;28;20175;-71
2021/03/29 09:16:37;;;;;;;1.63;1.17;;;19.10;46.70;;;;;;5044429;28;20191;-71
2021/03/29 09:19:12;;;;;;;0.70;0.70;;;19.30;47.90;;;;;;5045680;28;20202;-69
2021/03/29 09:21:39;;;;;;;0.80;0.80;;;20.00;47.90;;;;;;5041152;28;20188;-70
2021/03/29 09:24:22;;;;;;;0.73;0.73;;;20.80;46.70;;;;;;5047019;28;20194;-69
2021/03/29 09:27:01;;;;;;;0.90;0.82;;;21.40;44.70;;;;;;5045242;28;20240;-71
2021/03/29 09:29:37;;;;;;;1.00;0.90;;;21.50;45.20;;;;;;5054079;28;20396;-70
2021/03/29 09:32:08;;;;;;;1.10;0.98;;;22.20;44.70;;;;;;5061899;28;20268;-70
2021/03/29 09:34:36;;;;;;;1.08;0.98;;;22.80;44.00;;;;;;5062906;28;20566;-69
2021/03/29 09:37:02;;;;;;;2.65;1.10;;;22.70;43.20;;;;;;5047790;28;20866;-69
2021/03/29 09:39:30;;;;;;;0.95;0.77;;;22.70;44.30;;;;;;5046419;28;20188;-70
2021/03/29 09:41:56;;;;;;;3.92;1.00;;;22.70;43.70;;;;;;5047354;28;20210;-70
2021/03/29 09:44:33;;;;;;;2.05;0.98;;;23.20;44.30;;;;;;5046198;28;20187;-68
2021/03/29 09:47:00;;;;;;;1.20;1.10;;;23.60;42.60;;;;;;5046602;28;20179;-70
2021/03/29 09:49:28;;;;;;;1.33;1.23;;;23.70;42.30;;;;;;5046628;28;20180;-69
2021/03/29 09:52:05;;;;;;;1.67;1.23;;;23.50;42.20;;;;;;5046138;28;20211;-69
2021/03/29 09:54:37;;;;;;;0.98;0.98;;;23.70;44.00;;;;;;5043985;28;20179;-70
2021/03/29 09:57:18;;;;;;;1.20;1.10;;;24.00;43.30;;;;;;5044980;28;20545;-70
2021/03/29 09:59:45;;;;;;;1.25;1.00;;;24.60;43.20;;;;;;5046104;28;20176;-69
2021/03/29 10:02:28;;;;;;;3.65;1.00;;;24.80;40.90;;;;;;5046173;28;20188;-69
2021/03/29 10:05:10;;;;;;;1.30;1.20;;;24.80;42.30;;;;;;5045058;28;20190;-70
2021/03/29 10:07:54;;;;;;;0.85;0.85;;;24.60;41.10;;;;;;5045083;28;20191;-69
2021/03/29 10:10:31;;;;;;;0.80;0.80;;;24.90;43.00;;;;;;5045860;28;20671;-70
2021/03/29 10:13:14;;;;;;;0.75;0.75;;;25.60;43.30;;;;;;5045415;28;20175;-70
2021/03/29 10:15:41;;;;;;;1.23;0.77;;;26.50;41.20;;;;;;5045162;28;20176;-70
2021/03/29 10:18:12;;;;;;;1.05;0.80;;;27.30;40.00;;;;;;5043957;28;20191;-70
2021/03/29 10:20:41;;;;;;;2.53;0.93;;;27.40;39.90;;;;;;5042194;28;20183;-70
2021/03/29 10:23:28;;;;;;;1.30;0.60;;;27.50;40.00;;;;;;5044997;28;20631;-70
2021/03/29 10:26:18;;;;;;;1.08;1.08;;;27.90;39.80;;;;;;5045728;28;20728;-70
2021/03/29 10:29:01;;;;;;;3.97;0.60;;;28.60;38.60;;;;;;5044645;28;20699;-70
2021/03/29 10:31:29;;;;;;;1.10;0.77;;;29.20;39.00;;;;;;5042953;28;20260;-70
2021/03/29 10:33:56;;;;;;;0.82;0.82;;;29.20;38.80;;;;;;5032639;28;20547;-70
2021/03/29 10:36:23;;;;;;;1.70;1.05;;;28.60;37.30;;;;;;5044396;28;20183;-70
2021/03/29 10:38:49;;;;;;;1.20;1.20;;;27.80;38.60;;;;;;5045053;28;20222;-69
2021/03/29 10:41:15;;;;;;;0.80;0.80;;;27.90;38.90;;;;;;5049849;28;20202;-70
2021/03/29 10:43:42;;;;;;;1.90;0.93;;;27.80;39.20;;;;;;5049298;28;20195;-70
2021/03/29 10:46:08;;;;;;;0.98;0.98;;;27.90;39.90;;;;;;5045714;28;20562;-69
2021/03/29 10:48:34;;;;;;;0.80;0.80;;;28.30;38.10;;;;;;5048908;28;20179;-69
2021/03/29 10:51:01;;;;;;;2.95;0.98;;;28.10;37.60;;;;;;5049075;28;20235;-70
2021/03/29 10:53:27;;;;;;;0.70;0.70;;;27.40;38.40;;;;;;5048118;28;20240;-70
2021/03/29 10:55:53;;;;;;;3.00;1.05;;;26.00;39.30;;;;;;5041922;28;20588;-70
2021/03/29 10:58:19;;;;;;;2.53;1.10;;;23.60;41.40;;;;;;5045594;28;20179;-70
2021/03/29 11:00:44;;;;;;;1.08;1.05;;;23.60;41.40;;;;;;5049016;28;20178;-70
2021/03/29 11:03:11;;;;;;;0.73;0.73;;;22.80;42.10;;;;;;5044161;28;20183;-70
2021/03/29 11:05:36;;;;;;;1.15;1.08;;;22.90;41.80;;;;;;5043431;28;20664;-70
2021/03/29 11:08:02;;;;;;;0.93;0.93;;;22.60;42.40;;;;;;5042868;28;20179;-70
2021/03/29 11:10:28;;;;;;;1.38;1.17;;;22.40;43.80;;;;;;5038272;28;20194;-70
2021/03/29 11:12:54;;;;;;;1.85;0.73;;;22.80;42.90;;;;;;5042758;28;20222;-70
2021/03/29 11:15:20;;;;;;;1.10;1.00;;;23.40;43.00;;;;;;5060023;28;20200;-70
2021/03/29 11:17:46;;;;;;;0.80;0.80;;;23.40;41.60;;;;;;5062508;28;20550;-70
2021/03/29 11:20:12;;;;;;;1.08;1.00;;;22.80;41.30;;;;;;5045571;28;20188;-69
2021/03/29 11:22:38;;;;;;;1.10;1.00;;;21.50;43.30;;;;;;5047056;28;20184;-70
2021/03/29 11:25:07;;;;;;;1.00;1.00;;;20.70;44.50;;;;;;5046983;28;20194;-69
2021/03/29 11:27:32;;;;;;;0.88;0.88;;;20.80;44.10;;;;;;5042891;28;20753;-69
2021/03/29 11:29:58;;;;;;;0.73;0.73;;;20.50;45.40;;;;;;5042395;28;20203;-69
2021/03/29 11:32:25;;;;;;;1.10;1.00;;;20.30;45.30;;;;;;5047423;28;20206;-69
2021/03/29 11:34:51;;;;;;;0.70;0.70;;;20.50;45.30;;;;;;5042582;28;20639;-70
2021/03/29 11:37:17;;;;;;;1.00;1.00;;;21.10;44.90;;;;;;5039561;28;20175;-68
2021/03/29 11:39:43;;;;;;;1.05;0.80;;;21.80;43.30;;;;;;5042417;28;20180;-70
2021/03/29 11:42:08;;;;;;;1.10;1.10;;;22.40;42.90;;;;;;5042189;28;20261;-69
2021/03/29 11:44:34;;;;;;;3.65;1.05;;;22.70;42.40;;;;;;5054838;28;20641;-69
2021/03/29 11:47:00;;;;;;;2.30;0.90;;;23.00;42.90;;;;;;5045551;28;20530;-70
2021/03/29 11:49:25;;;;;;;1.40;0.85;;;23.10;42.70;;;;;;5045421;28;20191;-69
2021/03/29 11:51:51;;;;;;;1.00;1.00;;;23.20;42.20;;;;;;5038391;28;20203;-70
2021/03/29 11:54:17;;;;;;;1.40;1.30;;;23.30;42.30;;;;;;5046717;28;20187;-70
2021/03/29 11:56:43;;;;;;;1.95;1.00;;;23.70;41.70;;;;;;5041911;28;20183;-69
2021/03/29 11:59:08;;;;;;;1.00;1.00;;;23.60;41.50;;;;;;5047711;28;20264;-69
2021/03/29 12:01:41;;;;;;;1.20;0.77;;;23.90;41.00;;;;;;5041664;28;20187;-70
2021/03/29 12:07:17;;;;;;;3.53;0.90;;;24.10;41.30;;;;;;4981469;28;20655;-68
2021/03/29 12:12:36;;;;;;;1.35;0.80;;;25.30;40.40;;;;;;4939766;29;20223;-69
2021/03/29 12:15:03;;;;;;;0.90;0.90;;;26.00;39.90;;;;;;4941698;29;20671;-69
2021/03/29 12:17:29;;;;;;;1.25;0.63;;;26.30;39.40;;;;;;4943470;28;20202;-71
2021/03/29 12:19:57;;;;;;;0.73;0.73;;;26.00;39.60;;;;;;4924120;29;20187;-69
2021/03/29 12:22:26;;;;;;;1.00;1.00;;;25.30;39.50;;;;;;4941589;29;20618;-69
2021/03/29 12:24:55;;;;;;;0.70;0.70;;;24.30;40.80;;;;;;4939514;29;20195;-69
2021/03/29 12:27:21;;;;;;;0.90;0.90;;;24.00;40.50;;;;;;4941043;29;20183;-69
2021/03/29 12:29:48;;;;;;;0.60;0.60;;;24.10;41.90;;;;;;4941622;29;20215;-69
2021/03/29 12:32:19;;;;;;;0.88;0.88;;;24.30;40.90;;;;;;4940983;29;20203;-70
2021/03/29 12:34:47;;;;;;;0.63;0.63;;;24.40;42.00;;;;;;4923973;29;20195;-69
2021/03/29 12:37:17;;;;;;;1.48;0.50;;;24.80;42.00;;;;;;4925616;29;20211;-70
2021/03/29 12:40:02;;;;;;;1.23;0.70;;;24.80;41.30;;;;;;4942002;28;20187;-70
2021/03/29 12:42:37;;;;;;;1.35;0.80;;;24.40;41.10;;;;;;5021983;28;20567;-69
2021/03/29 12:45:05;;;;;;;0.47;0.47;;;24.30;41.50;;;;;;5028237;28;20184;-69
2021/03/29 12:47:32;;;;;;;2.08;0.95;;;24.60;41.10;;;;;;5027803;28;21332;-70
2021/03/29 12:50:10;;;;;;;2.70;1.90;;;25.00;40.60;;;;;;5042498;28;20211;-75
2021/03/29 12:52:37;;;;;;;1.70;1.23;;;25.20;40.30;;;;;;5055907;28;20207;-73
2021/03/29 12:55:06;;;;;;;1.75;0.85;;;24.40;40.20;;;;;;5045836;28;20188;-72
2021/03/29 12:57:32;;;;;;;1.65;0.85;;;23.00;41.20;;;;;;5044659;28;20180;-71
2021/03/29 12:59:57;;;;;;;0.63;0.63;;;22.20;42.40;;;;;;5041124;28;20690;-73
2021/03/29 13:02:26;;;;;;;0.98;0.60;;;22.10;42.00;;;;;;5076982;28;20186;-73
2021/03/29 13:04:52;;;;;;;1.55;0.60;;;22.00;42.10;;;;;;5050907;28;20233;-73
2021/03/29 13:07:26;;;;;;;1.65;0.50;;;21.70;41.70;;;;;;5053283;28;20300;-73
2021/03/29 13:10:08;;;;;;;0.55;0.52;;;21.40;43.00;;;;;;5051374;28;20179;-71
2021/03/29 13:12:35;;;;;;;1.63;0.77;;;21.60;43.00;;;;;;5053236;28;20739;-72
2021/03/29 13:15:05;;;;;;;1.13;0.75;;;21.30;43.90;;;;;;5053828;28;20359;-71
2021/03/29 13:17:37;;;;;;;0.60;0.55;;;21.60;43.90;;;;;;5052105;28;20172;-73
2021/03/29 13:20:08;;;;;;;0.90;0.40;;;22.10;43.50;;;;;;5055068;28;20240;-73
2021/03/29 13:22:34;;;;;;;0.73;0.73;;;22.30;42.80;;;;;;5051096;28;20187;-72